createdAt,value
2022-12-18T00:02:35.360Z,81.30
2022-12-18T00:06:21.558Z,81.30
2022-12-18T00:10:04.524Z,81.30
2022-12-18T00:13:48.419Z,81.40
2022-12-18T00:17:30.384Z,81.40
2022-12-18T00:21:13.651Z,81.40
2022-12-18T00:24:55.716Z,81.30
2022-12-18T00:28:38.477Z,81.30
2022-12-18T00:32:20.493Z,81.20
2022-12-18T00:36:07.378Z,81.20
2022-12-18T00:39:50.012Z,81.10
2022-12-18T00:43:35.200Z,81.10
2022-12-18T00:47:18.967Z,81.10
2022-12-18T00:51:03.686Z,81.00
2022-12-18T00:54:46.044Z,81.00
2022-12-18T00:58:29.157Z,80.90
2022-12-18T01:02:11.244Z,81.00
2022-12-18T01:05:53.240Z,81.00
2022-12-18T01:09:35.929Z,81.00
2022-12-18T01:13:18.069Z,81.00
2022-12-18T01:17:00.172Z,81.00
2022-12-18T01:20:42.396Z,81.00
2022-12-18T01:24:24.438Z,81.00
2022-12-18T01:28:06.434Z,81.00
2022-12-18T01:31:48.561Z,81.10
2022-12-18T01:35:30.643Z,81.10
2022-12-18T01:39:15.041Z,81.10
2022-12-18T01:42:56.999Z,81.10
2022-12-18T01:46:38.930Z,81.10
2022-12-18T01:50:42.850Z,81.10
2022-12-18T01:54:24.801Z,81.10
2022-12-18T01:58:07.014Z,81.10
2022-12-18T02:01:49.193Z,81.00
2022-12-18T02:05:39.320Z,81.00
2022-12-18T02:09:33.228Z,81.00
2022-12-18T02:13:38.704Z,81.00
2022-12-18T02:17:29.588Z,81.00
2022-12-18T02:21:24.391Z,81.00
2022-12-18T02:25:54.308Z,81.00
2022-12-18T02:29:50.539Z,81.10
2022-12-18T02:33:37.265Z,81.00
2022-12-18T02:37:21.364Z,80.90
2022-12-18T02:41:04.726Z,80.90
2022-12-18T02:44:49.345Z,80.90
2022-12-18T02:48:34.906Z,80.90
2022-12-18T02:52:29.911Z,80.80
2022-12-18T02:56:19.816Z,80.90
2022-12-18T03:00:11.554Z,80.90
2022-12-18T03:03:59.617Z,80.90
2022-12-18T03:07:51.751Z,80.90
2022-12-18T03:11:56.497Z,81.00
2022-12-18T03:15:50.744Z,80.90
2022-12-18T03:19:34.219Z,81.00
2022-12-18T03:23:26.401Z,81.00
2022-12-18T03:27:12.898Z,81.00
2022-12-18T03:31:00.275Z,81.00
2022-12-18T03:34:44.194Z,81.00
2022-12-18T03:38:26.229Z,81.00
2022-12-18T03:42:31.609Z,81.10
2022-12-18T03:46:20.488Z,81.10
2022-12-18T03:50:18.384Z,81.10
2022-12-18T03:54:03.768Z,81.10
2022-12-18T03:57:47.143Z,81.10
2022-12-18T04:01:36.027Z,81.20
2022-12-18T04:05:19.505Z,81.20
2022-12-18T04:09:01.935Z,81.20
2022-12-18T04:12:44.152Z,81.20
2022-12-18T04:16:27.193Z,81.20
2022-12-18T04:20:09.599Z,81.30
2022-12-18T04:23:51.507Z,81.30
2022-12-18T04:27:33.534Z,81.40
2022-12-18T04:31:15.734Z,81.40
2022-12-18T04:34:57.802Z,81.40
2022-12-18T04:38:39.990Z,81.50
2022-12-18T04:42:21.901Z,81.50
2022-12-18T04:46:05.732Z,81.60
2022-12-18T04:49:47.740Z,81.70
2022-12-18T04:53:29.753Z,81.90
2022-12-18T04:57:11.725Z,82.00
2022-12-18T05:00:53.620Z,82.20
2022-12-18T05:04:35.585Z,82.40
2022-12-18T05:08:17.572Z,82.60
2022-12-18T05:11:59.465Z,82.80
2022-12-18T05:15:42.961Z,82.90
2022-12-18T05:19:24.901Z,83.00
2022-12-18T05:23:06.819Z,83.10
2022-12-18T05:26:48.988Z,83.00
2022-12-18T05:30:30.985Z,83.10
2022-12-18T05:34:12.951Z,83.20
2022-12-18T05:37:54.989Z,83.20
2022-12-18T05:41:37.191Z,83.30
2022-12-18T05:45:19.140Z,83.30
2022-12-18T05:49:02.324Z,83.30
2022-12-18T05:52:44.303Z,83.30
2022-12-18T05:56:26.205Z,83.40
2022-12-18T06:00:09.059Z,83.50
2022-12-18T06:03:51.682Z,83.60
2022-12-18T06:07:33.827Z,83.60
2022-12-18T06:11:19.431Z,83.50
2022-12-18T06:15:01.710Z,83.40
2022-12-18T06:18:43.645Z,83.40
2022-12-18T06:22:26.071Z,83.30
2022-12-18T06:26:10.356Z,83.30
2022-12-18T06:29:52.445Z,83.40
2022-12-18T06:33:35.783Z,83.20
2022-12-18T06:37:17.819Z,83.10
2022-12-18T06:40:59.805Z,83.10
2022-12-18T06:44:41.911Z,83.00
2022-12-18T06:48:23.827Z,83.00
2022-12-18T06:52:06.241Z,82.90
2022-12-18T06:55:48.437Z,82.80
2022-12-18T06:59:30.506Z,82.70
2022-12-18T07:03:12.483Z,82.70
2022-12-18T07:06:54.513Z,82.70
2022-12-18T07:10:47.479Z,82.70
2022-12-18T07:14:30.969Z,82.70
2022-12-18T07:18:12.953Z,82.80
2022-12-18T07:21:55.642Z,82.80
2022-12-18T07:25:38.234Z,83.00
2022-12-18T07:29:20.259Z,83.00
2022-12-18T07:33:02.454Z,83.10
2022-12-18T07:36:44.707Z,83.20
2022-12-18T07:40:26.652Z,83.30
2022-12-18T07:44:12.079Z,83.40
2022-12-18T07:47:54.202Z,83.30
2022-12-18T07:51:36.514Z,83.40
2022-12-18T07:55:18.532Z,83.30
2022-12-18T07:59:03.686Z,83.20
2022-12-18T08:02:45.861Z,83.20
2022-12-18T08:06:28.083Z,83.10
2022-12-18T08:10:10.396Z,83.10
2022-12-18T08:13:52.474Z,83.00
2022-12-18T08:17:34.595Z,82.90
2022-12-18T08:21:24.172Z,82.70
2022-12-18T08:25:06.849Z,82.70
2022-12-18T08:28:49.747Z,82.60
2022-12-18T08:32:34.186Z,82.70
2022-12-18T08:36:16.130Z,82.70
2022-12-18T08:39:59.219Z,82.80
2022-12-18T08:44:00.029Z,83.10
2022-12-18T08:47:42.105Z,83.40
2022-12-18T08:51:24.387Z,83.70
2022-12-18T08:55:07.112Z,84.10
2022-12-18T08:58:52.182Z,84.30
2022-12-18T09:02:34.380Z,84.60
2022-12-18T09:06:18.577Z,84.80
2022-12-18T09:10:00.595Z,85.30
2022-12-18T09:13:42.928Z,85.40
2022-12-18T09:17:25.161Z,85.60
2022-12-18T09:21:20.111Z,85.50
2022-12-18T09:25:02.105Z,85.50
2022-12-18T09:28:44.874Z,85.50
2022-12-18T09:32:27.048Z,85.50
2022-12-18T09:36:12.558Z,85.50
2022-12-18T09:39:54.563Z,85.70
2022-12-18T09:43:50.874Z,85.80
2022-12-18T09:47:38.737Z,86.40
2022-12-18T09:51:28.964Z,85.90
2022-12-18T09:55:23.292Z,85.90
2022-12-18T09:59:06.373Z,85.80
2022-12-18T10:02:49.246Z,85.90
2022-12-18T10:06:44.738Z,86.00
2022-12-18T10:10:39.319Z,86.00
2022-12-18T10:14:24.006Z,86.50
2022-12-18T10:18:33.527Z,86.10
2022-12-18T10:22:50.074Z,87.10
2022-12-18T10:26:34.166Z,87.40
2022-12-18T10:30:21.058Z,86.80
2022-12-18T10:34:05.556Z,86.90
2022-12-18T10:38:07.746Z,87.10
2022-12-18T10:41:50.232Z,87.50
2022-12-18T10:45:32.337Z,87.50
2022-12-18T10:49:31.173Z,87.40
2022-12-18T10:53:21.509Z,87.50
2022-12-18T10:57:38.132Z,87.40
2022-12-18T11:01:23.700Z,87.90
2022-12-18T11:05:31.290Z,87.60
2022-12-18T11:09:27.232Z,88.40
2022-12-18T11:13:25.291Z,87.90
2022-12-18T11:17:25.969Z,88.10
2022-12-18T11:21:12.959Z,87.80
2022-12-18T11:29:19.202Z,87.90
2022-12-18T11:33:11.734Z,87.80
2022-12-18T11:36:54.293Z,87.70
2022-12-18T11:40:43.945Z,87.70
2022-12-18T11:44:32.114Z,87.80
2022-12-18T11:48:40.533Z,87.70
2022-12-18T11:52:24.648Z,88.30
2022-12-18T11:56:36.377Z,87.70
2022-12-18T12:00:20.953Z,88.40
2022-12-18T12:04:37.933Z,88.00
2022-12-18T12:09:03.903Z,88.40
2022-12-18T12:13:04.517Z,88.70
2022-12-18T12:17:12.204Z,88.80
2022-12-18T12:21:16.193Z,88.50
2022-12-18T12:25:34.237Z,89.00
2022-12-18T12:29:35.126Z,89.30
2022-12-18T12:33:32.561Z,89.30
2022-12-18T12:37:34.569Z,89.20
2022-12-18T12:41:41.506Z,89.70
2022-12-18T12:45:36.011Z,89.20
2022-12-18T12:49:25.659Z,89.30
2022-12-18T12:53:18.618Z,89.60
2022-12-18T12:57:28.169Z,89.70
2022-12-18T13:01:33.891Z,90.20
2022-12-18T13:05:31.509Z,90.20
2022-12-18T13:09:14.484Z,89.80
2022-12-18T13:13:08.975Z,89.90
2022-12-18T13:16:52.036Z,90.10
2022-12-18T13:20:40.041Z,90.00
2022-12-18T13:24:32.238Z,90.30
2022-12-18T13:28:17.445Z,90.50
2022-12-18T13:32:02.654Z,90.40
2022-12-18T13:35:47.898Z,90.50
2022-12-18T13:39:36.963Z,90.70
2022-12-18T13:43:20.831Z,90.80
2022-12-18T13:47:05.336Z,90.90
2022-12-18T13:50:56.333Z,91.00
2022-12-18T13:54:41.637Z,91.50
2022-12-18T13:58:24.274Z,91.40
2022-12-18T14:02:17.754Z,91.30
2022-12-18T14:06:09.563Z,91.60
2022-12-18T14:10:12.636Z,91.50
2022-12-18T14:14:02.028Z,91.50
2022-12-18T14:17:45.193Z,91.50
2022-12-18T14:21:34.142Z,91.60
2022-12-18T14:25:24.991Z,91.60
2022-12-18T14:29:28.733Z,91.80
2022-12-18T14:33:17.390Z,92.10
2022-12-18T14:37:00.365Z,91.90
2022-12-18T14:40:42.578Z,91.90
2022-12-18T14:44:25.363Z,91.90
2022-12-18T14:48:09.309Z,92.00
2022-12-18T14:52:05.058Z,92.10
2022-12-18T14:55:49.483Z,92.10
2022-12-18T14:59:33.522Z,92.20
2022-12-18T15:03:21.232Z,92.30
2022-12-18T15:07:12.303Z,92.20
2022-12-18T15:10:54.352Z,92.30
2022-12-18T15:14:42.732Z,92.30
2022-12-18T15:18:34.383Z,92.40
2022-12-18T15:22:32.046Z,92.50
2022-12-18T15:26:17.006Z,92.50
2022-12-18T15:30:05.251Z,92.50
2022-12-18T15:34:08.315Z,92.60
2022-12-18T15:37:52.197Z,92.70
2022-12-18T15:41:36.796Z,92.60
2022-12-18T15:45:26.653Z,92.70
2022-12-18T15:49:10.496Z,92.70
2022-12-18T15:53:00.795Z,92.70
2022-12-18T15:57:03.390Z,92.80
2022-12-18T16:00:46.799Z,92.80
2022-12-18T16:04:32.788Z,92.80
2022-12-18T16:08:17.417Z,92.80
2022-12-18T16:12:02.208Z,92.80
2022-12-18T16:15:44.463Z,92.80
2022-12-18T16:19:27.080Z,92.80
2022-12-18T16:23:12.584Z,92.80
2022-12-18T16:27:01.524Z,92.80
2022-12-18T16:30:44.478Z,92.90
2022-12-18T16:34:35.465Z,92.90
2022-12-18T16:38:27.132Z,92.90
2022-12-18T16:42:21.349Z,93.00
2022-12-18T16:46:04.089Z,93.00
2022-12-18T16:49:51.917Z,93.00
2022-12-18T16:53:54.371Z,93.00
2022-12-18T16:57:38.359Z,93.10
2022-12-18T17:01:21.120Z,93.00
2022-12-18T17:05:03.321Z,93.10
2022-12-18T17:08:45.382Z,93.00
2022-12-18T17:12:28.419Z,93.10
2022-12-18T17:16:10.659Z,93.00
2022-12-18T17:19:57.748Z,93.10
2022-12-18T17:23:40.533Z,93.10
2022-12-18T17:27:22.773Z,93.20
2022-12-18T17:31:23.998Z,93.10
2022-12-18T17:35:08.126Z,93.30
2022-12-18T17:39:09.243Z,93.10
2022-12-18T17:42:59.243Z,93.30
2022-12-18T17:46:42.956Z,93.20
2022-12-18T17:50:30.020Z,93.10
2022-12-18T17:54:15.204Z,93.20
2022-12-18T17:57:59.520Z,93.20
2022-12-18T18:01:45.726Z,93.20
2022-12-18T18:05:30.700Z,93.20
2022-12-18T18:09:16.769Z,93.30
2022-12-18T18:13:20.030Z,93.20
2022-12-18T18:17:05.430Z,93.20
2022-12-18T18:20:47.868Z,93.20
2022-12-18T18:24:30.260Z,93.30
2022-12-18T18:28:12.327Z,93.40
2022-12-18T18:31:54.568Z,93.40
2022-12-18T18:35:58.596Z,93.40
2022-12-18T18:39:40.899Z,93.40
2022-12-18T18:43:25.841Z,93.40
2022-12-18T18:47:09.619Z,93.40
2022-12-18T18:51:04.447Z,93.40
2022-12-18T18:55:11.750Z,93.50
2022-12-18T18:58:52.099Z,93.50
2022-12-18T19:02:34.425Z,93.60
2022-12-18T19:06:25.346Z,93.60
2022-12-18T19:10:08.584Z,93.60
2022-12-18T19:13:52.201Z,93.70
2022-12-18T19:17:34.816Z,93.60
2022-12-18T19:21:19.423Z,93.60
2022-12-18T19:25:01.601Z,93.50
2022-12-18T19:28:44.842Z,93.50
2022-12-18T19:32:27.115Z,93.50
2022-12-18T19:36:21.646Z,93.50
2022-12-18T19:40:07.254Z,93.60
2022-12-18T19:43:55.529Z,93.60
2022-12-18T19:47:38.820Z,93.60
2022-12-18T19:51:24.632Z,93.60
2022-12-18T19:55:09.154Z,93.60
2022-12-18T19:58:51.663Z,93.60
2022-12-18T20:02:37.218Z,93.60
2022-12-18T20:06:35.173Z,93.60
2022-12-18T20:10:17.411Z,93.90
2022-12-18T20:14:02.342Z,93.60
2022-12-18T20:17:47.256Z,93.50
2022-12-18T20:21:29.578Z,93.60
2022-12-18T20:25:11.669Z,93.60
2022-12-18T20:28:55.962Z,93.60
2022-12-18T20:32:40.531Z,93.60
2022-12-18T20:36:23.504Z,93.50
2022-12-18T20:40:07.286Z,93.50
2022-12-18T20:43:51.152Z,93.40
2022-12-18T20:47:33.186Z,93.50
2022-12-18T20:51:19.802Z,93.50
2022-12-18T20:55:06.677Z,93.60
2022-12-18T20:58:55.223Z,93.60
2022-12-18T21:02:37.769Z,93.70
2022-12-18T21:06:22.810Z,93.60
2022-12-18T21:10:06.182Z,93.70
2022-12-18T21:13:48.622Z,93.90
2022-12-18T21:17:30.737Z,93.90
2022-12-18T21:21:19.640Z,93.90
2022-12-18T21:25:10.089Z,93.90
2022-12-18T21:28:57.177Z,93.90
2022-12-18T21:32:40.524Z,93.90
2022-12-18T21:36:25.010Z,93.90
2022-12-18T21:40:08.474Z,93.90
2022-12-18T21:44:06.882Z,94.00
2022-12-18T21:47:49.188Z,93.90
2022-12-18T21:51:32.581Z,94.00
2022-12-18T21:55:16.632Z,93.80
2022-12-18T21:58:58.816Z,93.90
2022-12-18T22:02:41.055Z,93.90
2022-12-18T22:06:25.180Z,93.90
2022-12-18T22:10:07.827Z,94.00
2022-12-18T22:13:50.438Z,93.90
2022-12-18T22:17:37.055Z,93.90
2022-12-18T22:21:34.594Z,93.90
2022-12-18T22:25:17.123Z,94.10
2022-12-18T22:29:17.716Z,94.00
2022-12-18T22:33:00.081Z,94.00
2022-12-18T22:36:44.848Z,93.90
2022-12-18T22:40:28.114Z,93.90
2022-12-18T22:44:10.946Z,93.90
2022-12-18T22:47:55.364Z,93.80
2022-12-18T22:51:37.319Z,93.90
2022-12-18T22:55:19.400Z,93.90
2022-12-18T22:59:01.444Z,93.90
2022-12-18T23:02:45.709Z,93.90
2022-12-18T23:06:28.638Z,93.90
2022-12-18T23:10:10.856Z,94.00
2022-12-18T23:13:54.149Z,94.10
2022-12-18T23:17:39.772Z,94.10
2022-12-18T23:21:23.423Z,94.00
2022-12-18T23:25:09.801Z,94.10
2022-12-18T23:28:55.278Z,94.20
2022-12-18T23:32:41.698Z,94.10
2022-12-18T23:36:24.166Z,94.10
2022-12-18T23:40:08.550Z,94.10
2022-12-18T23:43:51.704Z,94.10
2022-12-18T23:47:33.724Z,94.10
2022-12-18T23:51:18.207Z,94.20
2022-12-18T23:55:01.235Z,94.30
2022-12-18T23:58:46.203Z,94.30
